sensor_id;sensor_type;location;lat;lon;timestamp;P1;durP1;ratioP1;P2;durP2;ratioP2
14241;SDS011;7205;50.864;12.766;2022-09-13T00:01:16;2.90;;;2.70;;
14241;SDS011;7205;50.864;12.766;2022-09-13T00:03:45;3.07;;;2.83;;
14241;SDS011;7205;50.864;12.766;2022-09-13T00:06:13;3.93;;;3.07;;
14241;SDS011;7205;50.864;12.766;2022-09-13T00:08:43;3.20;;;2.90;;
14241;SDS011;7205;50.864;12.766;2022-09-13T00:11:13;3.23;;;3.03;;
14241;SDS011;7205;50.864;12.766;2022-09-13T00:13:42;2.67;;;2.57;;
14241;SDS011;7205;50.864;12.766;2022-09-13T00:16:10;3.00;;;2.80;;
14241;SDS011;7205;50.864;12.766;2022-09-13T00:18:38;3.43;;;3.13;;
14241;SDS011;7205;50.864;12.766;2022-09-13T00:21:07;3.20;;;2.90;;
14241;SDS011;7205;50.864;12.766;2022-09-13T00:23:36;3.30;;;3.10;;
14241;SDS011;7205;50.864;12.766;2022-09-13T00:26:06;3.50;;;2.83;;
14241;SDS011;7205;50.864;12.766;2022-09-13T00:28:34;2.80;;;2.70;;
14241;SDS011;7205;50.864;12.766;2022-09-13T00:31:02;3.20;;;3.00;;
14241;SDS011;7205;50.864;12.766;2022-09-13T00:33:30;4.47;;;3.00;;
14241;SDS011;7205;50.864;12.766;2022-09-13T00:35:56;3.10;;;2.90;;
14241;SDS011;7205;50.864;12.766;2022-09-13T00:38:25;2.80;;;2.70;;
14241;SDS011;7205;50.864;12.766;2022-09-13T00:40:51;3.17;;;2.90;;
14241;SDS011;7205;50.864;12.766;2022-09-13T00:43:19;2.90;;;2.80;;
14241;SDS011;7205;50.864;12.766;2022-09-13T00:46:05;3.07;;;2.80;;
14241;SDS011;7205;50.864;12.766;2022-09-13T00:48:32;2.53;;;2.43;;
14241;SDS011;7205;50.864;12.766;2022-09-13T00:51:01;3.03;;;2.83;;
14241;SDS011;7205;50.864;12.766;2022-09-13T00:53:33;3.20;;;2.50;;
14241;SDS011;7205;50.864;12.766;2022-09-13T00:56:05;2.67;;;2.47;;
14241;SDS011;7205;50.864;12.766;2022-09-13T00:58:35;3.23;;;3.00;;
14241;SDS011;7205;50.864;12.766;2022-09-13T01:01:07;2.97;;;2.77;;
14241;SDS011;7205;50.864;12.766;2022-09-13T01:03:36;3.50;;;3.20;;
14241;SDS011;7205;50.864;12.766;2022-09-13T01:06:05;2.90;;;2.70;;
14241;SDS011;7205;50.864;12.766;2022-09-13T01:08:36;3.20;;;2.80;;
14241;SDS011;7205;50.864;12.766;2022-09-13T01:11:05;2.80;;;2.60;;
14241;SDS011;7205;50.864;12.766;2022-09-13T01:13:37;3.10;;;2.90;;
14241;SDS011;7205;50.864;12.766;2022-09-13T01:16:04;5.67;;;3.00;;
14241;SDS011;7205;50.864;12.766;2022-09-13T01:18:32;3.17;;;2.93;;
14241;SDS011;7205;50.864;12.766;2022-09-13T01:21:10;3.10;;;2.83;;
14241;SDS011;7205;50.864;12.766;2022-09-13T01:27:14;3.07;;;2.83;;
14241;SDS011;7205;50.864;12.766;2022-09-13T01:30:12;3.20;;;2.90;;
14241;SDS011;7205;50.864;12.766;2022-09-13T01:32:47;2.97;;;2.77;;
14241;SDS011;7205;50.864;12.766;2022-09-13T01:35:55;3.07;;;2.77;;
14241;SDS011;7205;50.864;12.766;2022-09-13T01:38:41;7.20;;;2.90;;
14241;SDS011;7205;50.864;12.766;2022-09-13T01:41:20;2.93;;;2.73;;
14241;SDS011;7205;50.864;12.766;2022-09-13T01:44:00;3.00;;;2.80;;
14241;SDS011;7205;50.864;12.766;2022-09-13T01:46:42;2.90;;;2.80;;
14241;SDS011;7205;50.864;12.766;2022-09-13T01:49:17;3.43;;;3.13;;
14241;SDS011;7205;50.864;12.766;2022-09-13T01:51:53;3.23;;;3.03;;
14241;SDS011;7205;50.864;12.766;2022-09-13T01:54:27;2.93;;;2.60;;
14241;SDS011;7205;50.864;12.766;2022-09-13T01:57:01;5.90;;;2.77;;
14241;SDS011;7205;50.864;12.766;2022-09-13T01:59:38;3.17;;;2.87;;
14241;SDS011;7205;50.864;12.766;2022-09-13T02:02:14;2.93;;;2.73;;
14241;SDS011;7205;50.864;12.766;2022-09-13T02:04:47;3.03;;;2.83;;
14241;SDS011;7205;50.864;12.766;2022-09-13T02:07:20;2.60;;;2.50;;
14241;SDS011;7205;50.864;12.766;2022-09-13T02:09:51;2.90;;;2.70;;
14241;SDS011;7205;50.864;12.766;2022-09-13T02:12:24;3.13;;;2.90;;
14241;SDS011;7205;50.864;12.766;2022-09-13T02:14:55;3.20;;;2.90;;
14241;SDS011;7205;50.864;12.766;2022-09-13T02:17:29;3.33;;;2.80;;
14241;SDS011;7205;50.864;12.766;2022-09-13T02:20:02;2.93;;;2.70;;
14241;SDS011;7205;50.864;12.766;2022-09-13T02:22:36;3.20;;;2.83;;
14241;SDS011;7205;50.864;12.766;2022-09-13T02:25:08;3.10;;;2.80;;
14241;SDS011;7205;50.864;12.766;2022-09-13T02:27:39;2.90;;;2.70;;
14241;SDS011;7205;50.864;12.766;2022-09-13T02:30:10;2.97;;;2.83;;
14241;SDS011;7205;50.864;12.766;2022-09-13T02:32:41;3.83;;;2.83;;
14241;SDS011;7205;50.864;12.766;2022-09-13T02:35:15;3.60;;;3.30;;
14241;SDS011;7205;50.864;12.766;2022-09-13T02:37:45;3.17;;;3.00;;
14241;SDS011;7205;50.864;12.766;2022-09-13T02:40:16;3.50;;;3.20;;
14241;SDS011;7205;50.864;12.766;2022-09-13T02:42:49;3.03;;;2.83;;
14241;SDS011;7205;50.864;12.766;2022-09-13T02:45:22;2.93;;;2.80;;
14241;SDS011;7205;50.864;12.766;2022-09-13T02:47:58;3.00;;;2.80;;
14241;SDS011;7205;50.864;12.766;2022-09-13T02:50:35;3.27;;;2.93;;
14241;SDS011;7205;50.864;12.766;2022-09-13T02:53:11;3.07;;;2.87;;
14241;SDS011;7205;50.864;12.766;2022-09-13T02:55:48;3.60;;;3.40;;
14241;SDS011;7205;50.864;12.766;2022-09-13T02:58:20;3.47;;;3.10;;
14241;SDS011;7205;50.864;12.766;2022-09-13T03:00:56;2.87;;;2.67;;
14241;SDS011;7205;50.864;12.766;2022-09-13T03:03:24;3.53;;;3.10;;
14241;SDS011;7205;50.864;12.766;2022-09-13T03:05:51;3.50;;;3.20;;
14241;SDS011;7205;50.864;12.766;2022-09-13T03:08:18;3.20;;;3.00;;
14241;SDS011;7205;50.864;12.766;2022-09-13T03:10:48;3.40;;;3.20;;
14241;SDS011;7205;50.864;12.766;2022-09-13T03:13:32;3.93;;;3.20;;
14241;SDS011;7205;50.864;12.766;2022-09-13T03:16:10;3.37;;;3.17;;
14241;SDS011;7205;50.864;12.766;2022-09-13T03:18:57;3.60;;;3.40;;
14241;SDS011;7205;50.864;12.766;2022-09-13T03:21:43;3.37;;;3.17;;
14241;SDS011;7205;50.864;12.766;2022-09-13T03:24:21;3.83;;;3.50;;
14241;SDS011;7205;50.864;12.766;2022-09-13T03:26:54;3.63;;;3.33;;
14241;SDS011;7205;50.864;12.766;2022-09-13T03:29:33;4.40;;;3.80;;
14241;SDS011;7205;50.864;12.766;2022-09-13T03:32:08;3.97;;;3.67;;
14241;SDS011;7205;50.864;12.766;2022-09-13T03:34:46;3.83;;;3.50;;
14241;SDS011;7205;50.864;12.766;2022-09-13T03:37:21;4.80;;;4.50;;
14241;SDS011;7205;50.864;12.766;2022-09-13T03:39:53;4.10;;;3.80;;
14241;SDS011;7205;50.864;12.766;2022-09-13T03:42:27;4.33;;;4.13;;
14241;SDS011;7205;50.864;12.766;2022-09-13T03:45:00;4.17;;;3.80;;
14241;SDS011;7205;50.864;12.766;2022-09-13T03:47:29;4.30;;;3.90;;
14241;SDS011;7205;50.864;12.766;2022-09-13T03:50:02;3.70;;;3.50;;
14241;SDS011;7205;50.864;12.766;2022-09-13T03:52:32;3.93;;;3.57;;
14241;SDS011;7205;50.864;12.766;2022-09-13T03:54:59;3.93;;;3.73;;
14241;SDS011;7205;50.864;12.766;2022-09-13T03:57:27;4.17;;;3.97;;
14241;SDS011;7205;50.864;12.766;2022-09-13T03:59:54;4.23;;;3.93;;
14241;SDS011;7205;50.864;12.766;2022-09-13T04:02:23;4.00;;;3.80;;
14241;SDS011;7205;50.864;12.766;2022-09-13T04:04:51;4.00;;;3.80;;
14241;SDS011;7205;50.864;12.766;2022-09-13T04:07:20;4.00;;;3.80;;
14241;SDS011;7205;50.864;12.766;2022-09-13T04:09:48;5.43;;;4.13;;
14241;SDS011;7205;50.864;12.766;2022-09-13T04:12:16;4.10;;;3.80;;
14241;SDS011;7205;50.864;12.766;2022-09-13T04:14:43;3.80;;;3.60;;
14241;SDS011;7205;50.864;12.766;2022-09-13T04:17:10;4.33;;;3.93;;
14241;SDS011;7205;50.864;12.766;2022-09-13T04:19:37;4.23;;;3.93;;
14241;SDS011;7205;50.864;12.766;2022-09-13T04:22:05;4.77;;;4.10;;
14241;SDS011;7205;50.864;12.766;2022-09-13T04:24:33;4.27;;;4.00;;
14241;SDS011;7205;50.864;12.766;2022-09-13T04:27:00;3.93;;;3.73;;
14241;SDS011;7205;50.864;12.766;2022-09-13T04:29:28;4.27;;;3.97;;
14241;SDS011;7205;50.864;12.766;2022-09-13T04:31:56;3.83;;;3.53;;
14241;SDS011;7205;50.864;12.766;2022-09-13T04:34:22;4.23;;;3.93;;
14241;SDS011;7205;50.864;12.766;2022-09-13T04:36:50;4.37;;;4.07;;
14241;SDS011;7205;50.864;12.766;2022-09-13T04:39:18;4.60;;;3.60;;
14241;SDS011;7205;50.864;12.766;2022-09-13T04:41:47;4.00;;;3.80;;
14241;SDS011;7205;50.864;12.766;2022-09-13T04:44:16;3.90;;;3.70;;
14241;SDS011;7205;50.864;12.766;2022-09-13T04:46:45;4.27;;;3.97;;
14241;SDS011;7205;50.864;12.766;2022-09-13T04:49:13;4.07;;;3.80;;
14241;SDS011;7205;50.864;12.766;2022-09-13T04:51:40;3.23;;;3.03;;
14241;SDS011;7205;50.864;12.766;2022-09-13T04:54:07;3.87;;;3.53;;
14241;SDS011;7205;50.864;12.766;2022-09-13T04:56:35;4.27;;;3.93;;
14241;SDS011;7205;50.864;12.766;2022-09-13T04:59:04;4.00;;;3.70;;
14241;SDS011;7205;50.864;12.766;2022-09-13T05:01:31;4.37;;;3.80;;
14241;SDS011;7205;50.864;12.766;2022-09-13T05:03:58;4.63;;;3.73;;
14241;SDS011;7205;50.864;12.766;2022-09-13T05:06:24;3.70;;;3.50;;
14241;SDS011;7205;50.864;12.766;2022-09-13T05:08:56;4.43;;;3.47;;
14241;SDS011;7205;50.864;12.766;2022-09-13T05:11:24;3.43;;;3.20;;
14241;SDS011;7205;50.864;12.766;2022-09-13T05:13:52;3.63;;;3.33;;
14241;SDS011;7205;50.864;12.766;2022-09-13T05:16:22;3.53;;;3.33;;
14241;SDS011;7205;50.864;12.766;2022-09-13T05:18:50;3.53;;;3.33;;
14241;SDS011;7205;50.864;12.766;2022-09-13T05:21:17;4.50;;;4.17;;
14241;SDS011;7205;50.864;12.766;2022-09-13T05:23:47;3.60;;;3.40;;
14241;SDS011;7205;50.864;12.766;2022-09-13T05:26:14;3.97;;;3.63;;
14241;SDS011;7205;50.864;12.766;2022-09-13T05:28:41;3.80;;;3.60;;
14241;SDS011;7205;50.864;12.766;2022-09-13T05:31:09;3.80;;;3.60;;
14241;SDS011;7205;50.864;12.766;2022-09-13T05:33:42;4.70;;;4.37;;
14241;SDS011;7205;50.864;12.766;2022-09-13T05:36:09;4.23;;;3.93;;
14241;SDS011;7205;50.864;12.766;2022-09-13T05:38:36;5.73;;;5.30;;
14241;SDS011;7205;50.864;12.766;2022-09-13T05:41:04;4.17;;;3.87;;
14241;SDS011;7205;50.864;12.766;2022-09-13T05:43:32;5.10;;;4.60;;
14241;SDS011;7205;50.864;12.766;2022-09-13T05:46:01;7.57;;;6.47;;
14241;SDS011;7205;50.864;12.766;2022-09-13T05:48:29;4.23;;;3.83;;
14241;SDS011;7205;50.864;12.766;2022-09-13T05:51:02;3.40;;;3.20;;
14241;SDS011;7205;50.864;12.766;2022-09-13T05:53:30;4.33;;;4.00;;
14241;SDS011;7205;50.864;12.766;2022-09-13T05:55:57;5.50;;;5.10;;
14241;SDS011;7205;50.864;12.766;2022-09-13T05:58:24;6.07;;;5.57;;
14241;SDS011;7205;50.864;12.766;2022-09-13T06:00:51;3.80;;;3.50;;
14241;SDS011;7205;50.864;12.766;2022-09-13T06:03:19;5.30;;;4.80;;
14241;SDS011;7205;50.864;12.766;2022-09-13T06:05:46;3.80;;;3.40;;
14241;SDS011;7205;50.864;12.766;2022-09-13T06:08:15;6.83;;;4.20;;
14241;SDS011;7205;50.864;12.766;2022-09-13T06:10:41;4.50;;;4.10;;
14241;SDS011;7205;50.864;12.766;2022-09-13T06:13:08;4.03;;;3.83;;
14241;SDS011;7205;50.864;12.766;2022-09-13T06:15:35;4.70;;;4.13;;
14241;SDS011;7205;50.864;12.766;2022-09-13T06:18:02;4.77;;;4.37;;
14241;SDS011;7205;50.864;12.766;2022-09-13T06:20:29;5.20;;;4.37;;
14241;SDS011;7205;50.864;12.766;2022-09-13T06:22:55;6.30;;;3.87;;
14241;SDS011;7205;50.864;12.766;2022-09-13T06:25:24;5.20;;;4.80;;
14241;SDS011;7205;50.864;12.766;2022-09-13T06:27:50;4.63;;;4.30;;
14241;SDS011;7205;50.864;12.766;2022-09-13T06:30:17;6.77;;;6.27;;
14241;SDS011;7205;50.864;12.766;2022-09-13T06:32:44;4.90;;;4.50;;
14241;SDS011;7205;50.864;12.766;2022-09-13T06:35:11;5.50;;;5.10;;
14241;SDS011;7205;50.864;12.766;2022-09-13T06:37:38;9.87;;;8.77;;
14241;SDS011;7205;50.864;12.766;2022-09-13T06:40:05;4.53;;;4.23;;
14241;SDS011;7205;50.864;12.766;2022-09-13T06:42:34;3.97;;;3.67;;
14241;SDS011;7205;50.864;12.766;2022-09-13T06:45:01;8.73;;;6.90;;
14241;SDS011;7205;50.864;12.766;2022-09-13T06:47:28;4.33;;;3.93;;
14241;SDS011;7205;50.864;12.766;2022-09-13T06:49:55;6.63;;;5.93;;
14241;SDS011;7205;50.864;12.766;2022-09-13T06:52:22;7.67;;;4.67;;
14241;SDS011;7205;50.864;12.766;2022-09-13T06:54:48;4.40;;;3.93;;
14241;SDS011;7205;50.864;12.766;2022-09-13T06:57:16;5.00;;;4.50;;
14241;SDS011;7205;50.864;12.766;2022-09-13T06:59:44;4.37;;;3.83;;
14241;SDS011;7205;50.864;12.766;2022-09-13T07:02:11;5.00;;;4.10;;
14241;SDS011;7205;50.864;12.766;2022-09-13T07:04:38;4.40;;;4.00;;
14241;SDS011;7205;50.864;12.766;2022-09-13T07:07:05;5.90;;;3.70;;
14241;SDS011;7205;50.864;12.766;2022-09-13T07:09:32;5.63;;;3.43;;
14241;SDS011;7205;50.864;12.766;2022-09-13T07:11:59;3.73;;;3.43;;
14241;SDS011;7205;50.864;12.766;2022-09-13T07:14:26;4.33;;;3.50;;
14241;SDS011;7205;50.864;12.766;2022-09-13T07:16:56;3.33;;;3.13;;
14241;SDS011;7205;50.864;12.766;2022-09-13T07:19:23;3.30;;;3.10;;
14241;SDS011;7205;50.864;12.766;2022-09-13T07:21:51;3.47;;;3.27;;
14241;SDS011;7205;50.864;12.766;2022-09-13T07:24:19;3.37;;;3.07;;
14241;SDS011;7205;50.864;12.766;2022-09-13T07:26:48;2.93;;;2.73;;
14241;SDS011;7205;50.864;12.766;2022-09-13T07:29:16;4.87;;;4.57;;
14241;SDS011;7205;50.864;12.766;2022-09-13T07:31:47;4.43;;;4.03;;
14241;SDS011;7205;50.864;12.766;2022-09-13T07:34:17;5.80;;;3.93;;
14241;SDS011;7205;50.864;12.766;2022-09-13T07:36:46;3.33;;;3.13;;
14241;SDS011;7205;50.864;12.766;2022-09-13T07:39:13;5.97;;;5.47;;
14241;SDS011;7205;50.864;12.766;2022-09-13T07:41:41;6.60;;;6.00;;
14241;SDS011;7205;50.864;12.766;2022-09-13T07:44:08;5.40;;;4.37;;
14241;SDS011;7205;50.864;12.766;2022-09-13T07:46:36;5.47;;;5.03;;
14241;SDS011;7205;50.864;12.766;2022-09-13T07:49:05;3.93;;;3.60;;
14241;SDS011;7205;50.864;12.766;2022-09-13T07:51:34;6.00;;;4.70;;
14241;SDS011;7205;50.864;12.766;2022-09-13T07:54:04;4.73;;;3.87;;
14241;SDS011;7205;50.864;12.766;2022-09-13T07:56:32;3.43;;;3.23;;
14241;SDS011;7205;50.864;12.766;2022-09-13T07:59:02;3.33;;;3.13;;
14241;SDS011;7205;50.864;12.766;2022-09-13T08:01:33;2.80;;;2.70;;
14241;SDS011;7205;50.864;12.766;2022-09-13T08:04:04;4.43;;;4.03;;
14241;SDS011;7205;50.864;12.766;2022-09-13T08:06:34;6.70;;;3.80;;
14241;SDS011;7205;50.864;12.766;2022-09-13T08:09:03;4.13;;;3.83;;
14241;SDS011;7205;50.864;12.766;2022-09-13T08:11:31;5.07;;;3.27;;
14241;SDS011;7205;50.864;12.766;2022-09-13T08:14:00;3.37;;;3.10;;
14241;SDS011;7205;50.864;12.766;2022-09-13T08:16:28;5.57;;;5.13;;
14241;SDS011;7205;50.864;12.766;2022-09-13T08:18:55;4.53;;;4.20;;
14241;SDS011;7205;50.864;12.766;2022-09-13T08:21:24;5.03;;;3.43;;
14241;SDS011;7205;50.864;12.766;2022-09-13T08:23:54;8.03;;;7.33;;
14241;SDS011;7205;50.864;12.766;2022-09-13T08:26:24;3.80;;;3.60;;
14241;SDS011;7205;50.864;12.766;2022-09-13T08:28:54;8.37;;;4.07;;
14241;SDS011;7205;50.864;12.766;2022-09-13T08:31:22;3.30;;;3.10;;
14241;SDS011;7205;50.864;12.766;2022-09-13T08:33:49;3.57;;;3.27;;
14241;SDS011;7205;50.864;12.766;2022-09-13T08:36:17;3.47;;;3.00;;
14241;SDS011;7205;50.864;12.766;2022-09-13T08:38:45;3.87;;;3.57;;
14241;SDS011;7205;50.864;12.766;2022-09-13T08:41:26;3.37;;;3.17;;
14241;SDS011;7205;50.864;12.766;2022-09-13T08:44:15;4.23;;;3.80;;
14241;SDS011;7205;50.864;12.766;2022-09-13T08:46:50;4.70;;;4.30;;
14241;SDS011;7205;50.864;12.766;2022-09-13T08:49:22;4.20;;;3.20;;
14241;SDS011;7205;50.864;12.766;2022-09-13T08:51:53;4.23;;;3.83;;
14241;SDS011;7205;50.864;12.766;2022-09-13T08:54:24;4.43;;;4.20;;
14241;SDS011;7205;50.864;12.766;2022-09-13T08:56:54;5.70;;;5.30;;
14241;SDS011;7205;50.864;12.766;2022-09-13T08:59:40;6.70;;;6.20;;
14241;SDS011;7205;50.864;12.766;2022-09-13T09:02:29;4.20;;;2.80;;
14241;SDS011;7205;50.864;12.766;2022-09-13T09:05:10;3.87;;;3.50;;
14241;SDS011;7205;50.864;12.766;2022-09-13T09:07:43;2.80;;;2.70;;
14241;SDS011;7205;50.864;12.766;2022-09-13T09:10:13;4.43;;;3.37;;
14241;SDS011;7205;50.864;12.766;2022-09-13T09:12:45;4.23;;;3.37;;
14241;SDS011;7205;50.864;12.766;2022-09-13T09:15:15;3.13;;;2.50;;
14241;SDS011;7205;50.864;12.766;2022-09-13T09:17:47;2.63;;;2.47;;
14241;SDS011;7205;50.864;12.766;2022-09-13T09:20:22;2.57;;;2.47;;
14241;SDS011;7205;50.864;12.766;2022-09-13T09:22:52;2.60;;;2.40;;
14241;SDS011;7205;50.864;12.766;2022-09-13T09:25:20;2.60;;;2.40;;
14241;SDS011;7205;50.864;12.766;2022-09-13T09:27:50;2.70;;;2.50;;
14241;SDS011;7205;50.864;12.766;2022-09-13T09:30:17;2.30;;;2.20;;
14241;SDS011;7205;50.864;12.766;2022-09-13T09:32:46;2.50;;;2.30;;
14241;SDS011;7205;50.864;12.766;2022-09-13T09:35:20;5.70;;;2.23;;
14241;SDS011;7205;50.864;12.766;2022-09-13T09:38:02;2.87;;;2.20;;
14241;SDS011;7205;50.864;12.766;2022-09-13T09:40:51;2.33;;;2.23;;
14241;SDS011;7205;50.864;12.766;2022-09-13T09:43:22;2.40;;;2.30;;
14241;SDS011;7205;50.864;12.766;2022-09-13T09:45:52;2.63;;;2.43;;
14241;SDS011;7205;50.864;12.766;2022-09-13T09:48:22;2.47;;;2.23;;
14241;SDS011;7205;50.864;12.766;2022-09-13T09:50:55;2.33;;;2.23;;
14241;SDS011;7205;50.864;12.766;2022-09-13T09:53:24;2.00;;;1.90;;
14241;SDS011;7205;50.864;12.766;2022-09-13T09:55:56;1.85;;;1.60;;
14241;SDS011;7205;50.864;12.766;2022-09-13T09:58:38;1.90;;;1.80;;
14241;SDS011;7205;50.864;12.766;2022-09-13T10:01:13;2.20;;;2.10;;
14241;SDS011;7205;50.864;12.766;2022-09-13T10:03:48;2.38;;;1.70;;
14241;SDS011;7205;50.864;12.766;2022-09-13T10:06:18;1.63;;;1.53;;
14241;SDS011;7205;50.864;12.766;2022-09-13T10:08:47;2.20;;;2.00;;
14241;SDS011;7205;50.864;12.766;2022-09-13T10:11:21;2.03;;;1.93;;
14241;SDS011;7205;50.864;12.766;2022-09-13T10:13:59;2.97;;;2.00;;
14241;SDS011;7205;50.864;12.766;2022-09-13T10:16:28;1.87;;;1.77;;
14241;SDS011;7205;50.864;12.766;2022-09-13T10:24:36;2.23;;;2.13;;
14241;SDS011;7205;50.864;12.766;2022-09-13T10:27:04;3.23;;;2.40;;
14241;SDS011;7205;50.864;12.766;2022-09-13T10:29:48;2.47;;;2.30;;
14241;SDS011;7205;50.864;12.766;2022-09-13T10:32:19;3.20;;;2.43;;
14241;SDS011;7205;50.864;12.766;2022-09-13T10:34:47;2.90;;;2.70;;
14241;SDS011;7205;50.864;12.766;2022-09-13T10:37:16;2.73;;;2.27;;
14241;SDS011;7205;50.864;12.766;2022-09-13T10:39:50;2.80;;;2.60;;
14241;SDS011;7205;50.864;12.766;2022-09-13T10:42:21;3.73;;;2.20;;
14241;SDS011;7205;50.864;12.766;2022-09-13T10:44:52;2.37;;;2.17;;
14241;SDS011;7205;50.864;12.766;2022-09-13T10:47:22;2.40;;;2.30;;
14241;SDS011;7205;50.864;12.766;2022-09-13T10:49:54;2.90;;;2.30;;
14241;SDS011;7205;50.864;12.766;2022-09-13T10:52:24;2.80;;;2.60;;
14241;SDS011;7205;50.864;12.766;2022-09-13T10:54:53;2.40;;;2.10;;
14241;SDS011;7205;50.864;12.766;2022-09-13T10:57:29;2.20;;;2.10;;
14241;SDS011;7205;50.864;12.766;2022-09-13T11:00:01;3.03;;;1.90;;
14241;SDS011;7205;50.864;12.766;2022-09-13T11:02:35;2.40;;;2.13;;
14241;SDS011;7205;50.864;12.766;2022-09-13T11:05:13;2.07;;;1.97;;
14241;SDS011;7205;50.864;12.766;2022-09-13T11:10:44;3.03;;;1.90;;
14241;SDS011;7205;50.864;12.766;2022-09-13T11:13:21;2.03;;;1.92;;
14241;SDS011;7205;50.864;12.766;2022-09-13T11:15:59;1.95;;;1.60;;
14241;SDS011;7205;50.864;12.766;2022-09-13T11:18:46;1.65;;;1.52;;
14241;SDS011;7205;50.864;12.766;2022-09-13T11:21:27;9.35;;;8.50;;
14241;SDS011;7205;50.864;12.766;2022-09-13T11:27:10;2.95;;;2.85;;
14241;SDS011;7205;50.864;12.766;2022-09-13T11:32:40;1.30;;;1.30;;
14241;SDS011;7205;50.864;12.766;2022-09-13T11:35:33;1.35;;;1.33;;
14241;SDS011;7205;50.864;12.766;2022-09-13T11:38:12;1.23;;;1.23;;
14241;SDS011;7205;50.864;12.766;2022-09-13T11:40:54;1.10;;;1.10;;
14241;SDS011;7205;50.864;12.766;2022-09-13T11:43:34;1.27;;;1.20;;
14241;SDS011;7205;50.864;12.766;2022-09-13T11:46:13;1.20;;;1.20;;
14241;SDS011;7205;50.864;12.766;2022-09-13T11:49:02;1.42;;;1.33;;
14241;SDS011;7205;50.864;12.766;2022-09-13T11:51:49;1.40;;;1.30;;
14241;SDS011;7205;50.864;12.766;2022-09-13T11:54:29;1.45;;;1.35;;
14241;SDS011;7205;50.864;12.766;2022-09-13T11:57:13;1.30;;;1.30;;
14241;SDS011;7205;50.864;12.766;2022-09-13T11:59:45;1.90;;;1.27;;
14241;SDS011;7205;50.864;12.766;2022-09-13T12:02:17;1.65;;;1.55;;
14241;SDS011;7205;50.864;12.766;2022-09-13T12:04:51;1.83;;;1.60;;
14241;SDS011;7205;50.864;12.766;2022-09-13T12:07:24;1.50;;;1.40;;
14241;SDS011;7205;50.864;12.766;2022-09-13T12:09:58;1.40;;;1.40;;
14241;SDS011;7205;50.864;12.766;2022-09-13T12:12:30;1.48;;;1.38;;
14241;SDS011;7205;50.864;12.766;2022-09-13T12:15:00;1.58;;;1.40;;
14241;SDS011;7205;50.864;12.766;2022-09-13T12:17:34;2.63;;;1.40;;
14241;SDS011;7205;50.864;12.766;2022-09-13T12:20:11;2.00;;;1.45;;
14241;SDS011;7205;50.864;12.766;2022-09-13T12:22:44;1.85;;;1.48;;
14241;SDS011;7205;50.864;12.766;2022-09-13T12:25:17;1.60;;;1.60;;
14241;SDS011;7205;50.864;12.766;2022-09-13T12:27:50;5.65;;;5.25;;
14241;SDS011;7205;50.864;12.766;2022-09-13T12:30:23;5.65;;;5.10;;
14241;SDS011;7205;50.864;12.766;2022-09-13T12:32:52;2.33;;;1.83;;
14241;SDS011;7205;50.864;12.766;2022-09-13T12:35:22;1.42;;;1.33;;
14241;SDS011;7205;50.864;12.766;2022-09-13T12:37:57;4.47;;;3.47;;
14241;SDS011;7205;50.864;12.766;2022-09-13T12:40:50;1.40;;;1.40;;
14241;SDS011;7205;50.864;12.766;2022-09-13T12:43:33;1.92;;;1.60;;
14241;SDS011;7205;50.864;12.766;2022-09-13T12:46:27;1.67;;;1.50;;
14241;SDS011;7205;50.864;12.766;2022-09-13T12:49:26;2.10;;;1.60;;
14241;SDS011;7205;50.864;12.766;2022-09-13T12:52:15;2.35;;;1.50;;
14241;SDS011;7205;50.864;12.766;2022-09-13T12:57:50;1.92;;;1.60;;
14241;SDS011;7205;50.864;12.766;2022-09-13T13:00:24;1.60;;;1.30;;
14241;SDS011;7205;50.864;12.766;2022-09-13T13:03:00;1.30;;;1.20;;
14241;SDS011;7205;50.864;12.766;2022-09-13T13:05:36;1.90;;;1.50;;
14241;SDS011;7205;50.864;12.766;2022-09-13T13:08:15;1.50;;;1.20;;
14241;SDS011;7205;50.864;12.766;2022-09-13T13:10:58;1.50;;;1.40;;
14241;SDS011;7205;50.864;12.766;2022-09-13T13:13:30;1.15;;;1.00;;
14241;SDS011;7205;50.864;12.766;2022-09-13T13:16:02;7.50;;;1.35;;
14241;SDS011;7205;50.864;12.766;2022-09-13T13:18:43;1.35;;;1.30;;
14241;SDS011;7205;50.864;12.766;2022-09-13T13:27:07;1.10;;;1.10;;
14241;SDS011;7205;50.864;12.766;2022-09-13T13:33:04;1.35;;;1.35;;
14241;SDS011;7205;50.864;12.766;2022-09-13T13:35:31;3.45;;;1.02;;
14241;SDS011;7205;50.864;12.766;2022-09-13T13:38:12;0.98;;;0.98;;
14241;SDS011;7205;50.864;12.766;2022-09-13T13:41:04;1.05;;;1.05;;
14241;SDS011;7205;50.864;12.766;2022-09-13T13:43:34;1.75;;;0.90;;
14241;SDS011;7205;50.864;12.766;2022-09-13T13:48:53;0.93;;;0.93;;
14241;SDS011;7205;50.864;12.766;2022-09-13T13:51:21;2.35;;;1.10;;
14241;SDS011;7205;50.864;12.766;2022-09-13T13:53:57;1.85;;;1.10;;
14241;SDS011;7205;50.864;12.766;2022-09-13T13:56:33;1.45;;;1.00;;
14241;SDS011;7205;50.864;12.766;2022-09-13T13:59:14;1.48;;;1.20;;
14241;SDS011;7205;50.864;12.766;2022-09-13T14:01:47;1.48;;;1.27;;
14241;SDS011;7205;50.864;12.766;2022-09-13T14:07:43;2.25;;;1.02;;
14241;SDS011;7205;50.864;12.766;2022-09-13T14:10:28;2.05;;;1.00;;
14241;SDS011;7205;50.864;12.766;2022-09-13T14:13:14;1.13;;;1.08;;
14241;SDS011;7205;50.864;12.766;2022-09-13T14:15:54;2.53;;;1.30;;
14241;SDS011;7205;50.864;12.766;2022-09-13T14:18:43;2.00;;;1.17;;
14241;SDS011;7205;50.864;12.766;2022-09-13T14:21:20;2.05;;;1.40;;
14241;SDS011;7205;50.864;12.766;2022-09-13T14:23:49;1.10;;;1.10;;
14241;SDS011;7205;50.864;12.766;2022-09-13T14:26:17;1.50;;;1.40;;
14241;SDS011;7205;50.864;12.766;2022-09-13T14:28:44;1.20;;;1.10;;
14241;SDS011;7205;50.864;12.766;2022-09-13T14:31:16;1.95;;;1.17;;
14241;SDS011;7205;50.864;12.766;2022-09-13T14:33:45;1.10;;;1.08;;
14241;SDS011;7205;50.864;12.766;2022-09-13T14:36:16;0.90;;;0.90;;
14241;SDS011;7205;50.864;12.766;2022-09-13T14:38:48;1.90;;;1.00;;
14241;SDS011;7205;50.864;12.766;2022-09-13T14:41:17;1.02;;;1.02;;
14241;SDS011;7205;50.864;12.766;2022-09-13T14:43:45;1.10;;;1.10;;
14241;SDS011;7205;50.864;12.766;2022-09-13T14:46:14;1.08;;;1.08;;
14241;SDS011;7205;50.864;12.766;2022-09-13T14:48:48;0.90;;;0.90;;
14241;SDS011;7205;50.864;12.766;2022-09-13T14:51:21;1.10;;;0.90;;
14241;SDS011;7205;50.864;12.766;2022-09-13T14:53:51;1.35;;;1.20;;
14241;SDS011;7205;50.864;12.766;2022-09-13T14:56:25;2.22;;;1.05;;
14241;SDS011;7205;50.864;12.766;2022-09-13T14:58:57;1.50;;;1.02;;
14241;SDS011;7205;50.864;12.766;2022-09-13T15:01:29;1.85;;;1.15;;
14241;SDS011;7205;50.864;12.766;2022-09-13T15:03:58;1.10;;;1.10;;
14241;SDS011;7205;50.864;12.766;2022-09-13T15:06:27;1.20;;;1.10;;
14241;SDS011;7205;50.864;12.766;2022-09-13T15:08:56;1.73;;;1.27;;
14241;SDS011;7205;50.864;12.766;2022-09-13T15:11:40;1.25;;;1.25;;
14241;SDS011;7205;50.864;12.766;2022-09-13T15:14:22;2.78;;;1.27;;
14241;SDS011;7205;50.864;12.766;2022-09-13T15:16:58;1.58;;;1.48;;
14241;SDS011;7205;50.864;12.766;2022-09-13T15:19:36;1.00;;;1.00;;
14241;SDS011;7205;50.864;12.766;2022-09-13T15:22:10;2.05;;;1.30;;
14241;SDS011;7205;50.864;12.766;2022-09-13T15:24:41;1.23;;;1.13;;
14241;SDS011;7205;50.864;12.766;2022-09-13T15:27:15;2.70;;;1.85;;
14241;SDS011;7205;50.864;12.766;2022-09-13T15:29:54;5.97;;;1.23;;
14241;SDS011;7205;50.864;12.766;2022-09-13T15:32:27;2.38;;;1.15;;
14241;SDS011;7205;50.864;12.766;2022-09-13T15:34:58;3.22;;;1.38;;
14241;SDS011;7205;50.864;12.766;2022-09-13T15:37:30;2.03;;;1.20;;
14241;SDS011;7205;50.864;12.766;2022-09-13T15:42:45;2.67;;;1.20;;
14241;SDS011;7205;50.864;12.766;2022-09-13T15:45:16;2.55;;;1.30;;
14241;SDS011;7205;50.864;12.766;2022-09-13T15:47:46;1.23;;;1.13;;
14241;SDS011;7205;50.864;12.766;2022-09-13T15:50:20;1.38;;;1.27;;
14241;SDS011;7205;50.864;12.766;2022-09-13T15:52:51;2.20;;;1.30;;
14241;SDS011;7205;50.864;12.766;2022-09-13T15:55:18;1.27;;;1.27;;
14241;SDS011;7205;50.864;12.766;2022-09-13T15:57:45;1.70;;;1.60;;